Startpagina
METAR-TAF:

METAR-TAF

Vliegvelden :

Pohnpei, Micronesië

breedte: 06-59N, lengte: 158-12E, hoogte: 2 m

Actueel weer

Dit bericht is 59 minuten geleden gemaakt, om 22:53 UTC
Wind 13 kt uit het oostnoordoosten
Temperatuur 29°C
Vochtigheid 79%
Druk 1010 hPa
Zicht: 24.1 km
Verspreide wolken op 1800 ft
Gebroken wolken op 13000 ft
Geheel bewolkt op 30000 ft

METAR: PTPN 232253Z 07013KT 15SM SCT018 BKN130 OVC300 29/25 A2983

Tijdstip: 10:52 (23:52 UTC)

Verwachting

Dit bericht is 32 minuten geleden gemaakt, om 23:20 UTC
Verwachting geldig van 24 om 00 UTC tot 24 om 24 UTC
Wind 13 kt uit het oostnoordoosten
Zicht: 10 km
Verspreide wolken op 1800 ft
Verspreide wolken op 13000 ft

TAF: PTPN 232320Z 2400/2424 07013KT P6SM SCT018 SCT130

Waarnemingen en weersverwachtingen van meer dan 4000 vliegvelden (METAR en TAF).

De beschikbare stations zijn de gele en rode punten op de kaart.

Ga met uw muis naar het station om de naam te zien.

Klik dan om waarnemingen en weersverwachtingen te zien.

kaart wijzigen: klik op de groene knoppen met een zwart kruis om in te zoomen, op de groene knop met een streepje om uit te zoomen of op de groene pijlen voor aangrenzende kaarten.


METAR-TAF: